createdAt,value
2023-01-25T00:00:05.594Z,24.68
2023-01-25T00:01:05.410Z,24.68
2023-01-25T00:02:05.362Z,24.69
2023-01-25T00:03:05.260Z,24.68
2023-01-25T00:04:05.049Z,24.69
2023-01-25T01:15:58.966Z,24.81
2023-01-25T01:16:58.922Z,24.81
2023-01-25T01:17:58.842Z,24.80
2023-01-25T01:18:58.763Z,24.80
2023-01-25T01:19:58.639Z,24.83
2023-01-25T01:20:58.523Z,24.81
2023-01-25T01:22:01.154Z,24.83
2023-01-25T01:22:58.290Z,24.79
2023-01-25T01:23:58.252Z,24.85
2023-01-25T01:24:58.634Z,24.80
2023-01-25T01:25:57.962Z,24.82
2023-01-25T01:26:57.850Z,24.81
2023-01-25T01:27:57.738Z,24.83
2023-01-25T01:28:57.639Z,24.81
2023-01-25T01:29:57.523Z,24.82
2023-01-25T01:30:57.382Z,24.82
2023-01-25T01:31:57.419Z,24.83
2023-01-25T01:32:57.174Z,24.82
2023-01-25T01:33:57.059Z,24.84
2023-01-25T01:34:56.974Z,24.82
2023-01-25T01:35:56.809Z,24.86
2023-01-25T01:36:56.703Z,24.83
2023-01-25T01:37:56.571Z,24.84
2023-01-25T01:38:56.475Z,24.85
2023-01-25T01:39:56.344Z,24.85
2023-01-25T01:40:56.218Z,24.86
2023-01-25T01:41:56.098Z,24.85
2023-01-25T01:42:56.020Z,24.84
2023-01-25T01:43:55.921Z,24.84
2023-01-25T01:44:55.764Z,24.85
2023-01-25T01:45:55.698Z,24.85
2023-01-25T01:46:55.530Z,24.88
2023-01-25T01:47:55.428Z,24.86
2023-01-25T01:48:55.288Z,24.86
2023-01-25T01:49:55.206Z,24.88
2023-01-25T01:50:55.067Z,24.85
2023-01-25T03:18:45.044Z,19.25
2023-01-25T04:28:38.211Z,17.08
2023-01-25T04:29:41.695Z,17.10
2023-01-25T04:30:38.006Z,17.14
2023-01-25T04:31:38.024Z,17.17
2023-01-25T04:32:37.975Z,17.01
2023-01-25T04:33:37.695Z,16.97
2023-01-25T04:34:37.573Z,16.98
2023-01-25T04:35:37.461Z,17.02
2023-01-25T04:36:37.371Z,17.05
2023-01-25T04:37:37.279Z,17.04
2023-01-25T04:38:37.145Z,16.99
2023-01-25T04:39:37.076Z,16.96
2023-01-25T04:40:36.923Z,16.90
2023-01-25T04:41:36.823Z,16.74
2023-01-25T04:42:36.757Z,16.86
2023-01-25T04:43:36.593Z,16.86
2023-01-25T04:44:38.227Z,16.88
2023-01-25T04:45:36.485Z,17.04
2023-01-25T04:46:36.291Z,17.02
2023-01-25T04:47:36.192Z,16.93
2023-01-25T04:48:36.054Z,16.94
2023-01-25T04:49:35.960Z,16.79
2023-01-25T04:50:35.846Z,16.76
2023-01-25T04:51:35.728Z,16.78
2023-01-25T04:52:36.197Z,16.80
2023-01-25T04:53:35.534Z,16.68
2023-01-25T04:54:35.407Z,16.61
2023-01-25T04:55:35.360Z,16.60
2023-01-25T04:56:35.214Z,16.69
2023-01-25T04:57:35.084Z,16.60
2023-01-25T04:58:35.705Z,16.61
2023-01-25T06:26:27.129Z,17.56
2023-01-25T06:27:27.007Z,17.79
2023-01-25T06:28:26.903Z,17.60
2023-01-25T06:29:26.809Z,18.02
2023-01-25T06:30:26.707Z,17.90
2023-01-25T06:31:26.695Z,18.03
2023-01-25T06:32:26.476Z,17.79
2023-01-25T06:33:26.368Z,18.00
2023-01-25T06:34:26.253Z,17.56
2023-01-25T06:35:26.152Z,17.78
2023-01-25T06:36:26.034Z,18.29
2023-01-25T06:37:25.950Z,18.86
2023-01-25T06:38:25.841Z,18.77
2023-01-25T06:39:25.730Z,18.87
2023-01-25T06:40:25.617Z,19.03
2023-01-25T06:41:25.513Z,19.12
2023-01-25T06:42:25.419Z,19.26
2023-01-25T06:43:25.296Z,19.57
2023-01-25T06:44:25.193Z,20.85
2023-01-25T06:45:25.081Z,20.75
2023-01-25T06:53:24.241Z,21.23
2023-01-25T06:54:24.122Z,21.05
2023-01-25T06:55:24.005Z,20.95
2023-01-25T06:56:23.911Z,21.05
2023-01-25T06:57:23.786Z,21.19
2023-01-25T06:58:23.666Z,21.17
2023-01-25T06:59:23.562Z,21.12
2023-01-25T07:00:23.463Z,21.05
2023-01-25T07:01:23.369Z,21.11
2023-01-25T07:02:23.309Z,21.03
2023-01-25T07:03:23.153Z,20.97
2023-01-25T07:04:23.064Z,20.96
2023-01-25T07:05:22.916Z,20.97
2023-01-25T07:06:22.825Z,21.18
2023-01-25T07:07:22.700Z,21.23
2023-01-25T07:08:22.621Z,21.15
2023-01-25T07:09:22.478Z,21.09
2023-01-25T07:10:22.397Z,21.08
2023-01-25T07:11:22.245Z,21.08
2023-01-25T07:12:22.142Z,20.97
2023-01-25T07:13:22.027Z,21.03
2023-01-25T07:14:21.944Z,21.05
2023-01-25T07:15:21.792Z,21.04
2023-01-25T07:16:21.698Z,21.09
2023-01-25T07:17:21.589Z,21.11
2023-01-25T07:18:21.476Z,21.15
2023-01-25T07:19:21.370Z,21.11
2023-01-25T07:20:21.302Z,21.04
2023-01-25T07:21:21.142Z,20.97
2023-01-25T07:22:21.056Z,20.94
2023-01-25T07:23:20.931Z,20.98
2023-01-25T07:24:20.889Z,21.08
2023-01-25T07:25:20.702Z,21.09
2023-01-25T07:26:20.600Z,21.19
2023-01-25T07:27:20.491Z,21.06
2023-01-25T07:28:20.371Z,21.04
2023-01-25T07:29:20.300Z,21.04
2023-01-25T07:30:20.141Z,21.08
2023-01-25T07:31:20.068Z,20.89
2023-01-25T07:32:19.927Z,21.06
2023-01-25T07:33:19.818Z,21.10
2023-01-25T07:34:19.759Z,21.07
2023-01-25T07:35:19.589Z,21.02
2023-01-25T07:36:19.471Z,21.15
2023-01-25T07:37:19.334Z,21.13
2023-01-25T07:38:19.229Z,20.96
2023-01-25T07:39:19.104Z,20.79
2023-01-25T07:40:19.015Z,20.85
2023-01-25T07:41:18.874Z,21.06
2023-01-25T07:42:18.751Z,21.12
2023-01-25T07:43:18.662Z,21.27
2023-01-25T07:44:18.532Z,21.39
2023-01-25T07:45:18.428Z,21.33
2023-01-25T07:46:18.311Z,21.34
2023-01-25T07:47:18.191Z,21.22
2023-01-25T07:48:18.137Z,21.00
2023-01-25T07:49:17.995Z,20.91
2023-01-25T07:50:17.924Z,20.90
2023-01-25T07:51:17.737Z,21.11
2023-01-25T07:52:17.620Z,20.89
2023-01-25T07:53:17.514Z,20.86
2023-01-25T07:54:17.419Z,20.93
2023-01-25T07:55:17.621Z,20.90
2023-01-25T07:56:17.147Z,20.85
2023-01-25T07:57:17.033Z,20.69
2023-01-25T07:58:16.916Z,20.75
2023-01-25T07:59:16.848Z,20.37
2023-01-25T08:00:16.958Z,20.38
2023-01-25T08:01:16.673Z,20.36
2023-01-25T08:02:16.650Z,20.15
2023-01-25T08:03:16.365Z,20.33
2023-01-25T08:04:16.227Z,20.41
2023-01-25T08:05:16.119Z,20.51
2023-01-25T08:06:16.013Z,20.43
2023-01-25T08:07:15.902Z,20.31
2023-01-25T08:08:15.803Z,20.22
2023-01-25T08:09:15.740Z,20.33
2023-01-25T08:10:15.746Z,20.35
2023-01-25T08:11:15.465Z,20.13
2023-01-25T08:12:15.326Z,20.24
2023-01-25T08:13:15.195Z,20.25
2023-01-25T08:14:15.117Z,20.18
2023-01-25T09:10:08.986Z,21.97
2023-01-25T09:11:08.476Z,22.00
2023-01-25T09:12:08.414Z,22.08
2023-01-25T09:13:08.850Z,22.13
2023-01-25T09:14:08.147Z,22.05
2023-01-25T09:15:08.519Z,22.02
2023-01-25T09:16:07.984Z,22.06
2023-01-25T09:17:07.981Z,22.17
2023-01-25T09:19:07.560Z,22.02
2023-01-25T09:20:07.778Z,21.99
2023-01-25T09:21:07.293Z,22.12
2023-01-25T09:22:07.171Z,22.29
2023-01-25T09:23:07.073Z,22.33
2023-01-25T09:24:08.066Z,22.35
2023-01-25T09:25:06.919Z,22.43
2023-01-25T09:26:06.728Z,22.43
2023-01-25T09:27:06.588Z,22.44
2023-01-25T09:28:06.546Z,22.34
2023-01-25T09:29:06.624Z,22.35
2023-01-25T09:30:10.885Z,22.27
2023-01-25T09:31:21.221Z,22.19
2023-01-25T09:32:07.132Z,21.93
2023-01-25T09:33:05.924Z,21.71
2023-01-25T09:34:05.784Z,21.48
2023-01-25T09:35:05.688Z,21.45
2023-01-25T09:36:05.556Z,21.34
2023-01-25T09:37:05.413Z,21.49
2023-01-25T09:38:05.326Z,21.45
2023-01-25T09:39:05.190Z,21.17
2023-01-25T09:40:05.078Z,20.74
2023-01-25T09:41:04.938Z,20.79
2023-01-25T09:42:14.138Z,20.99
2023-01-25T09:43:05.732Z,20.89
2023-01-25T09:44:14.236Z,20.77
2023-01-25T09:45:05.457Z,20.77
2023-01-25T09:46:04.370Z,20.57
2023-01-25T09:47:04.221Z,20.29
2023-01-25T09:48:04.100Z,21.04
2023-01-25T09:49:07.703Z,21.34
2023-01-25T09:50:03.926Z,21.72
2023-01-25T09:51:03.767Z,22.06
2023-01-25T09:52:03.639Z,22.26
2023-01-25T09:53:03.501Z,22.37
2023-01-25T09:54:03.358Z,21.79
2023-01-25T09:55:03.253Z,19.43
2023-01-25T09:56:03.114Z,18.86
2023-01-25T09:57:02.985Z,18.69
2023-01-25T09:58:02.891Z,19.54
2023-01-25T09:59:02.738Z,19.26
2023-01-25T10:00:03.230Z,20.10
2023-01-25T10:01:04.385Z,20.11
2023-01-25T10:02:02.468Z,20.35
2023-01-25T10:03:02.406Z,20.66
2023-01-25T10:04:02.144Z,20.48
2023-01-25T10:05:02.098Z,20.22
2023-01-25T10:06:01.926Z,20.46
2023-01-25T10:07:02.128Z,20.44
2023-01-25T10:08:01.693Z,20.46
2023-01-25T10:09:01.568Z,20.57
2023-01-25T10:10:01.434Z,20.37
2023-01-25T10:11:01.310Z,20.53
2023-01-25T10:12:01.207Z,19.84
2023-01-25T10:13:01.073Z,20.41
2023-01-25T10:14:00.998Z,20.24
2023-01-25T10:15:00.912Z,19.64
2023-01-25T10:16:00.726Z,19.68
2023-01-25T10:17:00.639Z,19.42
2023-01-25T10:18:00.496Z,19.72
2023-01-25T10:19:00.377Z,19.44
2023-01-25T10:20:00.277Z,19.22
2023-01-25T10:21:00.143Z,18.96
2023-01-25T10:22:59.923Z,18.29
2023-01-25T11:01:56.534Z,19.58
2023-01-25T11:03:56.379Z,19.30
2023-01-25T11:04:56.321Z,19.30
2023-01-25T11:05:56.219Z,19.50
2023-01-25T11:06:56.087Z,19.43
2023-01-25T11:07:55.980Z,19.42
2023-01-25T11:08:55.862Z,19.27
2023-01-25T11:09:55.745Z,19.18
2023-01-25T11:10:55.639Z,19.31
2023-01-25T11:11:55.507Z,19.29
2023-01-25T11:12:55.383Z,19.10
2023-01-25T11:13:55.272Z,19.15
2023-01-25T11:14:55.173Z,19.14
2023-01-25T11:15:55.050Z,19.07
2023-01-25T11:58:50.240Z,19.17
2023-01-25T11:59:50.143Z,19.19
2023-01-25T12:00:50.003Z,19.23
2023-01-25T12:02:49.913Z,19.24
2023-01-25T12:03:49.732Z,19.25
2023-01-25T12:04:49.540Z,19.25
2023-01-25T12:05:49.423Z,19.26
2023-01-25T12:06:49.329Z,19.28
2023-01-25T12:07:49.210Z,19.29
2023-01-25T12:08:49.076Z,19.28
2023-01-25T12:09:48.951Z,19.31
2023-01-25T12:10:48.852Z,19.29
2023-01-25T12:11:48.772Z,19.31
2023-01-25T12:12:48.624Z,19.30
2023-01-25T12:13:48.554Z,19.30
2023-01-25T12:14:48.378Z,19.30
2023-01-25T12:15:48.290Z,19.32
2023-01-25T12:16:48.159Z,19.28
2023-01-25T12:17:48.044Z,19.29
2023-01-25T12:18:47.916Z,19.38
2023-01-25T12:19:47.795Z,19.30
2023-01-25T12:20:47.709Z,19.29
2023-01-25T12:21:47.585Z,19.27
2023-01-25T12:22:47.461Z,19.30
2023-01-25T12:23:47.384Z,19.30
2023-01-25T12:24:47.222Z,19.35
2023-01-25T12:25:47.110Z,19.33
2023-01-25T12:26:47.018Z,19.33
2023-01-25T12:27:46.878Z,19.33
2023-01-25T12:28:46.790Z,19.33
2023-01-25T12:29:46.688Z,19.33
2023-01-25T12:30:46.580Z,19.35
2023-01-25T12:31:46.479Z,19.41
2023-01-25T12:32:46.351Z,19.34
2023-01-25T12:33:46.205Z,19.36
2023-01-25T12:34:46.109Z,19.36
2023-01-25T12:35:45.979Z,19.35
2023-01-25T12:36:45.875Z,19.39
2023-01-25T12:37:45.763Z,19.40
2023-01-25T12:38:45.651Z,19.36
2023-01-25T12:39:45.533Z,19.41
2023-01-25T12:40:45.461Z,19.37
2023-01-25T12:41:45.329Z,19.38
2023-01-25T12:42:45.195Z,19.41
2023-01-25T12:43:45.087Z,19.40
2023-01-25T12:44:45.002Z,19.38
2023-01-25T12:45:44.853Z,19.38
2023-01-25T12:46:44.788Z,19.42
2023-01-25T12:47:44.623Z,19.36
2023-01-25T12:48:44.528Z,19.40
2023-01-25T12:49:44.403Z,19.37
2023-01-25T12:50:44.287Z,19.37
2023-01-25T12:51:44.174Z,19.38
2023-01-25T12:52:44.070Z,19.36
2023-01-25T12:53:43.936Z,20.15
2023-01-25T12:54:43.817Z,20.71
2023-01-25T12:55:43.720Z,20.84
2023-01-25T12:56:43.612Z,20.91
2023-01-25T12:57:43.503Z,21.09
2023-01-25T12:58:43.362Z,21.08
2023-01-25T12:59:43.244Z,21.22
2023-01-25T13:00:43.146Z,21.47
2023-01-25T13:01:43.044Z,21.41
2023-01-25T13:02:42.906Z,21.40
2023-01-25T13:03:42.773Z,21.43
2023-01-25T13:04:42.683Z,21.46
2023-01-25T13:05:42.546Z,21.40
2023-01-25T13:06:42.434Z,21.49
2023-01-25T13:07:42.331Z,21.58
2023-01-25T13:08:42.194Z,21.79
2023-01-25T13:09:42.076Z,21.66
2023-01-25T13:10:41.983Z,21.77
2023-01-25T13:11:41.844Z,21.65
2023-01-25T13:12:41.731Z,21.59
2023-01-25T13:13:41.596Z,21.42
2023-01-25T13:14:41.475Z,21.34
2023-01-25T13:15:41.451Z,21.27
2023-01-25T13:16:41.237Z,21.19
2023-01-25T13:17:41.157Z,21.07
2023-01-25T13:18:41.002Z,21.05
2023-01-25T13:19:40.897Z,21.02
2023-01-25T13:20:40.767Z,20.97
2023-01-25T13:21:40.634Z,20.89
2023-01-25T13:22:42.715Z,20.87
2023-01-25T13:23:40.390Z,20.81
2023-01-25T13:24:40.288Z,20.74
2023-01-25T13:25:40.185Z,20.68
2023-01-25T13:26:40.050Z,20.62
2023-01-25T13:27:39.986Z,20.59
2023-01-25T13:28:39.863Z,20.51
2023-01-25T13:29:39.760Z,20.48
2023-01-25T13:30:39.668Z,20.46
2023-01-25T13:31:51.912Z,20.34
2023-01-25T13:32:40.400Z,20.33
2023-01-25T13:33:39.310Z,20.26
2023-01-25T13:34:39.316Z,20.21
2023-01-25T13:35:39.098Z,20.18
2023-01-25T13:36:38.882Z,20.16
2023-01-25T13:37:38.766Z,20.15
2023-01-25T13:38:38.639Z,20.11
2023-01-25T13:39:38.625Z,20.07
2023-01-25T13:40:38.429Z,20.06
2023-01-25T13:41:38.286Z,20.08
2023-01-25T13:42:38.181Z,20.03
2023-01-25T13:43:38.120Z,19.99
2023-01-25T13:44:37.942Z,19.92
2023-01-25T13:45:37.816Z,19.89
2023-01-25T13:46:37.694Z,19.90
2023-01-25T13:47:37.633Z,19.89
2023-01-25T13:48:38.331Z,19.88
2023-01-25T13:49:37.363Z,19.90
2023-01-25T13:50:37.290Z,19.85
2023-01-25T13:51:37.113Z,19.84
2023-01-25T13:52:37.027Z,19.84
2023-01-25T13:53:36.887Z,19.80
2023-01-25T13:54:36.789Z,19.85
2023-01-25T13:55:36.657Z,19.85
2023-01-25T13:56:36.553Z,19.84
2023-01-25T16:29:26.342Z,20.82
2023-01-25T16:30:26.373Z,20.80
2023-01-25T16:31:32.792Z,20.82
2023-01-25T16:32:27.261Z,20.84
2023-01-25T16:33:26.226Z,20.86
2023-01-25T16:34:26.201Z,20.86
2023-01-25T16:35:26.161Z,20.87
2023-01-25T16:36:26.126Z,20.92
2023-01-25T16:37:26.096Z,20.92
2023-01-25T16:38:26.057Z,20.90
2023-01-25T16:39:26.034Z,20.93
2023-01-25T16:40:26.010Z,20.93
2023-01-25T16:41:25.970Z,20.93
2023-01-25T16:42:25.930Z,20.96
2023-01-25T16:43:31.736Z,20.96
2023-01-25T16:45:25.855Z,20.99
2023-01-25T16:46:25.834Z,21.00
2023-01-25T16:47:27.686Z,21.01
2023-01-25T16:48:25.759Z,21.06
2023-01-25T16:49:25.725Z,21.05
2023-01-25T16:50:25.693Z,21.06
2023-01-25T16:51:25.664Z,21.06
2023-01-25T16:52:25.605Z,21.07
2023-01-25T16:53:25.579Z,21.11
2023-01-25T16:54:25.547Z,21.11
2023-01-25T16:55:25.516Z,21.14
2023-01-25T16:56:25.482Z,21.14
2023-01-25T16:57:25.445Z,21.18
2023-01-25T16:58:25.412Z,21.20
2023-01-25T16:59:25.371Z,21.23
2023-01-25T17:00:25.357Z,21.23
2023-01-25T17:01:25.393Z,21.22
2023-01-25T17:02:25.462Z,21.24
2023-01-25T17:03:25.429Z,21.23
2023-01-25T17:04:25.455Z,21.23
2023-01-25T17:05:25.703Z,21.26
2023-01-25T17:06:25.510Z,21.29
2023-01-25T17:07:25.532Z,21.30
2023-01-25T17:08:25.552Z,21.30
2023-01-25T17:09:25.798Z,21.30
2023-01-25T17:10:25.604Z,21.32
2023-01-25T17:11:25.632Z,21.31
2023-01-25T17:12:25.667Z,21.32
2023-01-25T17:13:25.681Z,21.34
2023-01-25T17:14:25.713Z,21.30
2023-01-25T17:15:25.743Z,21.33
2023-01-25T17:16:25.775Z,21.33
2023-01-25T17:17:25.797Z,21.35
2023-01-25T17:18:25.818Z,21.34
2023-01-25T17:19:25.846Z,21.38
2023-01-25T17:20:25.881Z,21.37
2023-01-25T17:21:25.915Z,21.39
2023-01-25T17:22:25.942Z,21.39
2023-01-25T17:23:25.977Z,21.38
2023-01-25T17:24:26.067Z,21.41
2023-01-25T17:25:26.004Z,21.41
2023-01-25T17:26:26.025Z,21.43
2023-01-25T17:27:26.075Z,21.42
2023-01-25T17:28:26.081Z,21.42
2023-01-25T17:29:26.107Z,21.41
2023-01-25T17:30:26.141Z,21.43
2023-01-25T17:31:26.254Z,21.45
2023-01-25T17:32:26.184Z,21.47
2023-01-25T17:33:26.189Z,21.49
2023-01-25T17:34:26.212Z,21.47
2023-01-25T17:35:26.252Z,21.51
2023-01-25T17:36:26.251Z,21.49
2023-01-25T17:37:26.311Z,21.49
2023-01-25T17:38:26.285Z,21.49
2023-01-25T17:39:26.303Z,21.52
2023-01-25T17:40:26.332Z,21.52
2023-01-25T17:41:26.384Z,21.55
2023-01-25T17:42:26.385Z,21.57
2023-01-25T17:43:26.411Z,21.56
2023-01-25T17:44:26.462Z,21.56
2023-01-25T17:45:26.456Z,21.59
2023-01-25T17:46:26.577Z,21.57
2023-01-25T17:47:26.512Z,21.62
2023-01-25T17:48:26.542Z,21.61
2023-01-25T17:49:26.565Z,21.60
2023-01-25T17:50:26.616Z,21.61
2023-01-25T17:51:26.620Z,21.63
2023-01-25T17:52:26.645Z,21.63
2023-01-25T17:53:26.677Z,21.65
2023-01-25T17:54:26.706Z,21.64
2023-01-25T17:55:26.728Z,21.66
2023-01-25T17:56:26.768Z,21.67
2023-01-25T17:57:26.799Z,21.66
2023-01-25T17:58:26.805Z,21.66
2023-01-25T17:59:26.831Z,21.71
2023-01-25T18:00:26.870Z,21.70
2023-01-25T18:01:26.930Z,21.73
2023-01-25T18:02:26.933Z,21.73
2023-01-25T18:03:26.918Z,21.73
2023-01-25T18:04:26.957Z,21.73
2023-01-25T18:05:26.977Z,21.74
2023-01-25T18:06:26.993Z,21.75
2023-01-25T18:07:27.029Z,21.76
2023-01-25T18:08:27.052Z,21.78
2023-01-25T18:09:27.088Z,21.79
2023-01-25T18:10:27.117Z,21.81
2023-01-25T18:11:27.142Z,21.83
2023-01-25T18:12:27.184Z,21.83
2023-01-25T18:13:27.202Z,21.81
2023-01-25T18:14:27.205Z,21.84
2023-01-25T18:15:27.229Z,21.87
2023-01-25T18:16:27.251Z,21.85
2023-01-25T18:17:27.275Z,21.87
2023-01-25T18:18:27.322Z,21.88
2023-01-25T18:19:27.373Z,21.88
2023-01-25T18:20:27.353Z,21.87
2023-01-25T18:21:27.372Z,21.87
2023-01-25T18:22:27.401Z,21.88
2023-01-25T18:23:27.460Z,21.92
2023-01-25T18:24:27.552Z,21.92
2023-01-25T18:25:27.496Z,21.91
2023-01-25T18:26:27.525Z,21.92
2023-01-25T18:27:27.556Z,21.93
2023-01-25T18:28:27.578Z,21.94
2023-01-25T18:29:27.647Z,21.96
2023-01-25T18:30:27.637Z,21.97
2023-01-25T18:31:27.823Z,21.96
2023-01-25T18:32:27.744Z,21.96
2023-01-25T18:33:27.743Z,21.98
2023-01-25T18:34:27.786Z,21.97
2023-01-25T18:36:27.785Z,21.98
2023-01-25T21:02:27.069Z,22.92
2023-01-25T21:03:29.750Z,22.95
2023-01-25T21:04:27.015Z,22.92
2023-01-25T21:05:26.965Z,22.93
2023-01-25T21:06:26.930Z,22.94
2023-01-25T21:07:26.915Z,22.95
2023-01-25T21:08:26.869Z,22.97
2023-01-25T21:09:26.839Z,22.97
2023-01-25T21:10:26.828Z,22.96
2023-01-25T21:11:26.776Z,22.97
2023-01-25T21:12:26.760Z,22.99
2023-01-25T21:13:26.713Z,22.99
2023-01-25T21:14:26.674Z,22.98
2023-01-25T21:15:26.643Z,23.00
2023-01-25T21:16:26.656Z,22.99
2023-01-25T21:17:26.588Z,23.00
2023-01-25T21:18:26.546Z,22.99
2023-01-25T21:19:26.629Z,23.00
2023-01-25T21:20:26.471Z,23.01
2023-01-25T21:21:26.455Z,23.02
2023-01-25T21:22:26.516Z,23.03
2023-01-25T21:23:26.371Z,23.04
2023-01-25T21:24:26.413Z,23.05
2023-01-25T21:25:26.347Z,23.07
2023-01-25T21:26:26.263Z,23.06
2023-01-25T21:27:26.232Z,23.07
2023-01-25T21:28:26.190Z,23.07
2023-01-25T21:29:26.157Z,23.09
2023-01-25T21:30:26.147Z,23.08
2023-01-25T21:31:26.159Z,23.10
2023-01-25T21:32:26.059Z,23.10
2023-01-25T21:33:26.023Z,23.12
2023-01-25T21:34:25.994Z,23.13
2023-01-25T21:35:25.964Z,23.11
2023-01-25T21:36:25.950Z,23.11
2023-01-25T21:37:25.887Z,23.12
2023-01-25T21:38:25.860Z,23.14
2023-01-25T21:39:25.834Z,23.13
2023-01-25T21:40:25.802Z,23.14
2023-01-25T21:41:25.776Z,23.15
2023-01-25T21:42:25.722Z,23.16
2023-01-25T21:43:25.686Z,23.15
2023-01-25T21:44:25.636Z,23.21
2023-01-25T21:45:25.657Z,23.18
2023-01-25T21:46:25.627Z,23.18
2023-01-25T21:47:30.774Z,23.20
2023-01-25T21:48:26.493Z,23.21
2023-01-25T21:49:25.467Z,23.21
2023-01-25T21:50:25.432Z,23.19
2023-01-25T21:51:25.395Z,23.23
2023-01-25T21:52:25.334Z,23.23
2023-01-25T21:53:25.305Z,23.23
2023-01-25T21:54:25.284Z,23.22
2023-01-25T21:55:25.250Z,23.27
2023-01-25T21:56:25.226Z,23.29
2023-01-25T21:57:25.185Z,23.27
2023-01-25T21:58:25.141Z,23.28
2023-01-25T21:59:25.113Z,23.31
2023-01-25T22:00:25.097Z,23.30
2023-01-25T22:01:25.075Z,23.31
2023-01-25T22:02:25.048Z,23.33
2023-01-25T22:03:24.973Z,23.34
2023-01-25T22:04:24.947Z,23.32
2023-01-25T22:05:24.885Z,23.33
2023-01-25T22:06:24.844Z,23.33
2023-01-25T22:07:24.812Z,23.32
2023-01-25T22:08:24.781Z,23.32
2023-01-25T22:09:24.746Z,23.34
2023-01-25T22:10:24.707Z,23.31
2023-01-25T22:11:24.681Z,23.35
2023-01-25T22:12:24.614Z,23.34
2023-01-25T22:13:24.582Z,23.39
2023-01-25T22:14:24.554Z,23.38
2023-01-25T22:15:24.528Z,23.38
2023-01-25T22:16:24.494Z,23.38
2023-01-25T22:17:24.458Z,23.38
2023-01-25T22:18:24.433Z,23.40
2023-01-25T22:19:24.367Z,23.42
2023-01-25T22:20:24.324Z,23.44
2023-01-25T22:21:24.287Z,23.43
2023-01-25T22:22:24.241Z,23.45
2023-01-25T22:23:24.199Z,23.45
2023-01-25T22:24:24.220Z,23.47
2023-01-25T22:25:24.122Z,23.46
2023-01-25T22:26:24.125Z,23.50
2023-01-25T22:27:24.056Z,23.46
2023-01-25T22:28:24.040Z,23.48
2023-01-25T22:29:24.011Z,23.48
2023-01-25T22:30:23.960Z,23.49
2023-01-25T22:31:24.000Z,23.50
2023-01-25T22:32:23.904Z,23.52
2023-01-25T22:33:23.864Z,23.54
2023-01-25T22:34:23.830Z,23.51
2023-01-25T22:35:23.817Z,23.51
2023-01-25T22:36:23.782Z,23.53
2023-01-25T22:37:23.736Z,23.56
2023-01-25T22:38:23.713Z,23.54
2023-01-25T22:39:23.681Z,23.55
2023-01-25T22:40:23.641Z,23.59
2023-01-25T22:41:23.603Z,23.56
2023-01-25T22:42:23.547Z,23.60
2023-01-25T22:43:23.505Z,23.59
2023-01-25T22:44:23.489Z,23.59
2023-01-25T22:45:23.441Z,23.61
2023-01-25T22:46:23.476Z,23.61
2023-01-25T22:47:23.379Z,23.60
2023-01-25T22:48:23.340Z,23.64
2023-01-25T22:49:23.299Z,23.61
2023-01-25T22:50:23.265Z,23.64
2023-01-25T22:51:25.320Z,23.63
2023-01-25T22:52:23.204Z,23.65
2023-01-25T22:53:23.141Z,23.64
2023-01-25T22:54:23.123Z,23.66
2023-01-25T22:55:23.062Z,23.66
2023-01-25T22:56:23.021Z,23.66
2023-01-25T22:57:22.983Z,23.68
2023-01-25T22:58:22.949Z,23.69
2023-01-25T22:59:22.914Z,23.70
2023-01-25T23:00:22.886Z,23.71
2023-01-25T23:01:22.935Z,23.69
2023-01-25T23:02:22.936Z,23.72
2023-01-25T23:03:22.970Z,23.73
2023-01-25T23:04:22.998Z,23.73
2023-01-25T23:05:22.991Z,23.73
2023-01-25T23:06:23.026Z,23.74
2023-01-25T23:07:23.044Z,23.75
2023-01-25T23:08:23.072Z,23.72
2023-01-25T23:09:23.111Z,23.73
2023-01-25T23:10:23.110Z,23.74
2023-01-25T23:11:23.141Z,23.76
2023-01-25T23:12:23.154Z,23.76
2023-01-25T23:13:23.177Z,23.76
2023-01-25T23:14:23.191Z,23.77
2023-01-25T23:15:23.215Z,23.76
2023-01-25T23:16:23.268Z,23.78
2023-01-25T23:17:23.286Z,23.77
2023-01-25T23:18:23.302Z,23.77
2023-01-25T23:19:23.315Z,23.78
2023-01-25T23:20:23.316Z,23.80
2023-01-25T23:21:23.325Z,23.81
2023-01-25T23:22:23.392Z,23.79
2023-01-25T23:23:23.366Z,23.80
2023-01-25T23:24:23.404Z,23.81
2023-01-25T23:25:23.404Z,23.79
2023-01-25T23:26:23.410Z,23.82
